createdAt,value
2023-03-04T00:01:15.913Z,64.13
2023-03-04T00:03:42.926Z,64.41
2023-03-04T00:06:09.844Z,64.49
2023-03-04T00:08:36.434Z,64.55
2023-03-04T00:11:02.961Z,64.56
2023-03-04T00:13:29.534Z,64.71
2023-03-04T00:15:56.201Z,64.94
2023-03-04T00:18:22.944Z,64.73
2023-03-04T00:20:52.584Z,64.98
2023-03-04T00:23:19.125Z,64.92
2023-03-04T00:25:45.667Z,64.88
2023-03-04T00:28:12.220Z,65.47
2023-03-04T00:30:38.820Z,65.30
2023-03-04T00:33:05.376Z,65.10
2023-03-04T00:35:31.967Z,65.12
2023-03-04T00:37:58.511Z,65.37
2023-03-04T00:40:25.031Z,65.44
2023-03-04T00:42:51.571Z,65.51
2023-03-04T00:45:18.231Z,65.52
2023-03-04T00:47:44.838Z,66.09
2023-03-04T00:50:11.708Z,65.95
2023-03-04T00:52:38.326Z,65.81
2023-03-04T00:55:05.892Z,65.64
2023-03-04T00:57:32.426Z,65.87
2023-03-04T00:59:58.947Z,66.10
2023-03-04T01:02:25.537Z,66.31
2023-03-04T01:04:52.341Z,66.35
2023-03-04T01:07:18.927Z,66.43
2023-03-04T01:09:45.486Z,67.38
2023-03-04T01:12:12.321Z,67.44
2023-03-04T01:14:38.875Z,67.31
2023-03-04T01:17:05.650Z,68.41
2023-03-04T01:19:32.369Z,68.28
2023-03-04T01:21:58.927Z,68.10
2023-03-04T01:24:25.521Z,68.27
2023-03-04T01:26:52.107Z,68.03
2023-03-04T01:29:18.685Z,68.17
2023-03-04T01:31:45.247Z,68.36
2023-03-04T01:34:11.836Z,69.28
2023-03-04T01:36:38.375Z,69.11
2023-03-04T01:39:05.359Z,68.90
2023-03-04T01:41:32.563Z,68.81
2023-03-04T01:44:02.291Z,69.05
2023-03-04T01:46:30.102Z,69.16
2023-03-04T01:48:57.134Z,68.86
2023-03-04T01:51:24.417Z,69.07
2023-03-04T01:53:53.496Z,69.28
2023-03-04T01:56:24.855Z,69.31
2023-03-04T01:59:10.979Z,69.58
2023-03-04T02:01:38.629Z,69.54
2023-03-04T02:04:06.362Z,69.91
2023-03-04T02:06:33.009Z,70.08
2023-03-04T02:08:59.714Z,70.50
2023-03-04T02:11:26.805Z,70.53
2023-03-04T02:13:53.532Z,70.31
2023-03-04T02:16:20.147Z,70.37
2023-03-04T02:18:46.733Z,70.78
2023-03-04T02:21:33.143Z,70.68
2023-03-04T02:24:11.880Z,71.19
2023-03-04T02:26:41.411Z,71.18
2023-03-04T02:29:11.424Z,71.27
2023-03-04T02:31:40.344Z,71.16
2023-03-04T02:34:16.402Z,71.24
2023-03-04T02:36:44.227Z,71.12
2023-03-04T02:39:15.206Z,71.13
2023-03-04T02:41:44.364Z,70.97
2023-03-04T02:44:34.663Z,70.96
2023-03-04T02:47:02.240Z,71.16
2023-03-04T02:49:31.780Z,71.34
2023-03-04T02:52:07.127Z,72.21
2023-03-04T02:54:34.437Z,71.64
2023-03-04T02:57:04.528Z,71.64
2023-03-04T02:59:31.092Z,71.57
2023-03-04T03:01:58.061Z,71.56
2023-03-04T03:04:26.978Z,71.57
2023-03-04T03:06:53.627Z,71.96
2023-03-04T03:09:20.976Z,71.91
2023-03-04T03:11:47.583Z,71.69
2023-03-04T03:14:14.410Z,72.00
2023-03-04T03:16:41.012Z,72.20
2023-03-04T03:19:07.549Z,72.09
2023-03-04T03:21:34.095Z,72.00
2023-03-04T03:24:00.631Z,72.15
2023-03-04T03:26:27.173Z,72.20
2023-03-04T03:28:53.842Z,72.04
2023-03-04T03:31:20.417Z,71.95
2023-03-04T03:33:47.217Z,72.43
2023-03-04T03:36:14.016Z,72.39
2023-03-04T03:38:40.630Z,72.54
2023-03-04T03:41:07.152Z,72.63
2023-03-04T03:43:33.828Z,72.65
2023-03-04T03:46:00.394Z,72.75
2023-03-04T03:48:26.956Z,72.72
2023-03-04T03:50:53.663Z,72.53
2023-03-04T03:53:20.306Z,72.75
2023-03-04T03:55:46.804Z,72.88
2023-03-04T03:58:13.594Z,72.88
2023-03-04T04:00:40.137Z,72.88
2023-03-04T04:03:06.832Z,72.97
2023-03-04T04:05:33.422Z,73.05
2023-03-04T04:07:59.998Z,73.26
2023-03-04T04:10:26.521Z,72.98
2023-03-04T04:12:53.079Z,73.21
2023-03-04T04:15:19.786Z,73.32
2023-03-04T04:17:46.348Z,73.37
2023-03-04T04:20:12.960Z,73.40
2023-03-04T04:22:39.505Z,73.17
2023-03-04T04:25:08.845Z,72.99
2023-03-04T04:27:35.460Z,73.43
2023-03-04T04:30:02.167Z,73.31
2023-03-04T04:32:28.804Z,73.48
2023-03-04T04:34:55.384Z,73.46
2023-03-04T04:37:22.012Z,73.57
2023-03-04T04:39:48.632Z,73.45
2023-03-04T04:42:15.239Z,73.28
2023-03-04T04:44:41.766Z,73.49
2023-03-04T04:47:09.980Z,73.45
2023-03-04T04:49:36.518Z,73.43
2023-03-04T04:52:03.353Z,73.32
2023-03-04T04:54:30.012Z,73.50
2023-03-04T04:56:56.595Z,73.40
2023-03-04T04:59:23.424Z,73.51
2023-03-04T05:01:50.087Z,73.60
2023-03-04T05:04:16.682Z,73.48
2023-03-04T05:06:43.358Z,73.30
2023-03-04T05:09:09.944Z,73.58
2023-03-04T05:11:36.512Z,73.53
2023-03-04T05:14:03.222Z,73.54
2023-03-04T05:16:29.743Z,73.35
2023-03-04T05:18:56.302Z,73.47
2023-03-04T05:21:22.954Z,73.59
2023-03-04T05:23:49.493Z,73.66
2023-03-04T05:26:17.623Z,73.50
2023-03-04T05:28:44.946Z,73.52
2023-03-04T05:31:11.639Z,73.55
2023-03-04T05:33:38.605Z,73.58
2023-03-04T05:36:07.156Z,73.52
2023-03-04T05:38:34.452Z,73.36
2023-03-04T05:41:04.161Z,73.44
2023-03-04T05:43:31.851Z,73.71
2023-03-04T05:45:58.393Z,73.80
2023-03-04T05:48:25.040Z,73.91
2023-03-04T05:51:00.804Z,74.21
2023-03-04T05:53:28.603Z,74.30
2023-03-04T05:55:55.536Z,76.31
2023-03-04T05:58:22.873Z,78.16
2023-03-04T06:00:49.400Z,76.66
2023-03-04T06:03:18.284Z,72.93
2023-03-04T06:05:45.312Z,68.73
2023-03-04T06:08:12.868Z,66.14
2023-03-04T06:10:40.944Z,67.67
2023-03-04T06:13:08.652Z,67.12
2023-03-04T06:15:35.225Z,67.21
2023-03-04T06:18:02.293Z,67.55
2023-03-04T06:20:29.078Z,68.12
2023-03-04T06:22:55.626Z,68.27
2023-03-04T06:25:23.316Z,68.76
2023-03-04T06:27:50.876Z,69.05
2023-03-04T06:30:18.552Z,69.27
2023-03-04T06:32:46.209Z,69.65
2023-03-04T06:35:14.757Z,70.13
2023-03-04T06:37:41.845Z,70.38
2023-03-04T06:40:10.571Z,70.21
2023-03-04T06:42:37.457Z,70.30
2023-03-04T06:45:04.992Z,70.55
2023-03-04T06:47:31.650Z,70.81
2023-03-04T06:49:58.369Z,71.14
2023-03-04T06:52:25.183Z,70.87
2023-03-04T06:54:51.768Z,71.01
2023-03-04T06:57:18.402Z,71.24
2023-03-04T06:59:44.957Z,71.07
2023-03-04T07:02:12.880Z,70.84
2023-03-04T07:04:41.276Z,71.03
2023-03-04T07:07:07.854Z,71.11
2023-03-04T07:09:34.376Z,71.06
2023-03-04T07:12:01.083Z,70.84
2023-03-04T07:14:28.064Z,70.71
2023-03-04T07:16:54.900Z,71.00
2023-03-04T07:19:21.862Z,70.79
2023-03-04T07:21:48.483Z,70.65
2023-03-04T07:24:15.354Z,70.61
2023-03-04T07:26:41.978Z,70.46
2023-03-04T07:29:08.508Z,70.36
2023-03-04T07:31:36.819Z,70.15
2023-03-04T07:34:06.491Z,70.13
2023-03-04T07:36:35.873Z,69.94
2023-03-04T07:39:03.716Z,69.91
2023-03-04T07:41:31.061Z,69.77
2023-03-04T07:43:58.684Z,69.75
2023-03-04T07:46:25.732Z,69.52
2023-03-04T07:48:52.284Z,69.13
2023-03-04T07:51:20.999Z,68.94
2023-03-04T07:53:49.951Z,68.98
2023-03-04T07:56:23.741Z,68.53
2023-03-04T07:58:52.398Z,68.25
2023-03-04T08:01:31.125Z,68.38
2023-03-04T08:03:58.215Z,68.22
2023-03-04T08:06:26.899Z,67.84
2023-03-04T08:09:03.260Z,67.17
2023-03-04T08:11:31.118Z,67.16
2023-03-04T08:13:58.183Z,66.57
2023-03-04T08:16:25.775Z,66.36
2023-03-04T08:18:56.841Z,64.94
2023-03-04T08:21:25.626Z,64.80
2023-03-04T08:23:53.190Z,65.00
2023-03-04T08:26:34.188Z,64.54
2023-03-04T08:29:02.546Z,63.37
2023-03-04T08:31:29.201Z,63.56
2023-03-04T08:33:56.641Z,63.20
2023-03-04T08:36:23.236Z,62.82
2023-03-04T08:38:49.777Z,63.30
2023-03-04T08:41:16.915Z,61.27
2023-03-04T08:43:44.175Z,61.40
2023-03-04T08:46:10.830Z,61.03
2023-03-04T08:48:38.350Z,60.56
2023-03-04T08:51:10.135Z,60.97
2023-03-04T08:53:37.893Z,60.85
2023-03-04T08:56:05.553Z,60.22
2023-03-04T08:58:32.108Z,59.53
2023-03-04T09:01:00.062Z,59.20
2023-03-04T09:03:26.640Z,59.52
2023-03-04T09:05:53.376Z,59.71
2023-03-04T09:08:19.948Z,59.93
2023-03-04T09:10:47.149Z,59.86
2023-03-04T09:13:17.053Z,60.08
2023-03-04T09:15:48.645Z,60.69
2023-03-04T09:18:15.823Z,60.35
2023-03-04T09:20:42.443Z,60.52
2023-03-04T09:23:09.745Z,60.07
2023-03-04T09:25:37.976Z,60.42
2023-03-04T09:28:06.196Z,60.97
2023-03-04T09:30:34.326Z,60.80
2023-03-04T09:33:01.260Z,60.61
2023-03-04T09:35:30.080Z,59.77
2023-03-04T09:37:58.880Z,60.40
2023-03-04T09:40:29.840Z,59.78
2023-03-04T09:43:06.416Z,59.31
2023-03-04T09:45:40.172Z,59.47
2023-03-04T09:48:10.394Z,58.20
2023-03-04T09:50:44.100Z,58.02
2023-03-04T09:53:20.079Z,58.44
2023-03-04T09:55:50.362Z,57.44
2023-03-04T09:58:25.546Z,57.46
2023-03-04T10:01:02.355Z,58.21
2023-03-04T10:03:48.369Z,57.64
2023-03-04T10:06:21.328Z,57.61
2023-03-04T10:09:02.660Z,57.50
2023-03-04T10:11:40.016Z,57.68
2023-03-04T10:14:33.670Z,57.80
2023-03-04T10:17:09.600Z,57.77
2023-03-04T10:19:41.348Z,58.82
2023-03-04T10:22:27.007Z,58.84
2023-03-04T10:24:58.923Z,58.62
2023-03-04T10:27:26.072Z,58.93
2023-03-04T10:29:52.656Z,58.04
2023-03-04T10:32:20.784Z,58.03
2023-03-04T10:34:47.786Z,58.23
2023-03-04T10:37:14.338Z,58.24
2023-03-04T10:39:43.788Z,58.44
2023-03-04T10:42:16.543Z,58.71
2023-03-04T10:45:03.567Z,58.05
2023-03-04T10:47:33.149Z,58.39
2023-03-04T10:50:05.559Z,57.74
2023-03-04T10:52:46.632Z,57.65
2023-03-04T10:55:28.734Z,57.74
2023-03-04T10:57:57.976Z,58.06
2023-03-04T11:00:26.721Z,57.29
2023-03-04T11:02:53.291Z,57.47
2023-03-04T11:05:21.631Z,57.47
2023-03-04T11:07:56.979Z,57.35
2023-03-04T11:10:25.443Z,57.30
2023-03-04T11:13:00.474Z,56.99
2023-03-04T11:15:29.382Z,56.17
2023-03-04T11:18:10.463Z,56.53
2023-03-04T11:20:41.582Z,56.51
2023-03-04T11:23:17.014Z,56.36
2023-03-04T11:26:00.179Z,55.89
2023-03-04T11:28:45.106Z,56.05
2023-03-04T11:31:20.458Z,55.83
2023-03-04T11:34:00.436Z,55.18
2023-03-04T11:36:32.980Z,54.71
2023-03-04T11:39:01.813Z,54.78
2023-03-04T11:41:41.627Z,54.80
2023-03-04T11:44:09.227Z,55.23
2023-03-04T11:47:28.863Z,54.82
2023-03-04T11:50:27.257Z,54.91
2023-03-04T11:53:02.586Z,54.15
2023-03-04T11:55:38.220Z,54.57
2023-03-04T11:58:16.444Z,54.39
2023-03-04T12:00:52.929Z,53.56
2023-03-04T12:03:27.692Z,53.27
2023-03-04T12:06:02.991Z,53.38
2023-03-04T12:08:47.745Z,54.11
2023-03-04T12:11:26.084Z,53.92
2023-03-04T12:14:20.974Z,53.78
2023-03-04T12:17:34.636Z,53.68
2023-03-04T12:20:01.102Z,53.42
2023-03-04T12:22:30.365Z,53.35
2023-03-04T12:25:24.612Z,53.07
2023-03-04T12:28:00.108Z,53.41
2023-03-04T12:30:41.514Z,52.88
2023-03-04T12:33:14.270Z,52.87
2023-03-04T12:35:55.616Z,53.18
2023-03-04T12:39:00.790Z,53.56
2023-03-04T12:42:08.161Z,53.69
2023-03-04T12:45:00.779Z,53.61
2023-03-04T12:47:35.706Z,53.62
2023-03-04T12:50:11.083Z,53.33
2023-03-04T12:52:48.479Z,52.97
2023-03-04T12:55:19.012Z,52.66
2023-03-04T12:57:46.305Z,52.85
2023-03-04T13:00:30.819Z,52.06
2023-03-04T13:03:46.979Z,52.07
2023-03-04T13:06:32.278Z,51.62
2023-03-04T13:09:30.062Z,52.69
2023-03-04T13:12:22.433Z,52.52
2023-03-04T13:15:07.462Z,52.56
2023-03-04T13:17:36.992Z,51.97
2023-03-04T13:20:20.472Z,52.36
2023-03-04T13:23:06.641Z,52.26
2023-03-04T13:25:39.972Z,52.29
2023-03-04T13:28:13.523Z,52.56
2023-03-04T13:30:59.989Z,52.12
2023-03-04T13:33:26.546Z,51.63
2023-03-04T13:36:04.220Z,51.92
2023-03-04T13:38:34.891Z,52.52
2023-03-04T13:41:16.729Z,51.46
2023-03-04T13:43:56.848Z,51.39
2023-03-04T13:46:24.101Z,51.50
2023-03-04T13:48:50.825Z,52.19
2023-03-04T13:51:29.414Z,52.30
2023-03-04T13:53:59.820Z,52.05
2023-03-04T13:56:37.600Z,50.85
2023-03-04T13:59:07.250Z,50.55
2023-03-04T14:01:42.889Z,50.83
2023-03-04T14:04:25.317Z,51.28
2023-03-04T14:06:54.344Z,51.92
2023-03-04T14:09:25.162Z,51.05
2023-03-04T14:11:54.216Z,51.85
2023-03-04T14:14:25.192Z,51.86
2023-03-04T14:17:01.386Z,51.86
2023-03-04T14:19:30.975Z,51.49
2023-03-04T14:22:02.303Z,51.78
2023-03-04T14:24:30.934Z,51.44
2023-03-04T14:27:14.364Z,51.48
2023-03-04T14:29:40.902Z,51.89
2023-03-04T14:32:08.247Z,51.44
2023-03-04T14:34:38.302Z,51.91
2023-03-04T14:37:21.650Z,52.17
2023-03-04T14:39:51.749Z,52.04
2023-03-04T14:42:21.639Z,52.46
2023-03-04T14:44:51.031Z,52.78
2023-03-04T14:47:20.888Z,52.76
2023-03-04T14:49:47.846Z,53.40
2023-03-04T14:52:34.656Z,53.54
2023-03-04T14:55:22.432Z,53.60
2023-03-04T14:57:58.586Z,53.09
2023-03-04T15:00:29.617Z,53.31
2023-03-04T15:02:58.974Z,53.41
2023-03-04T15:05:32.768Z,53.92
2023-03-04T15:08:07.086Z,53.85
2023-03-04T15:10:36.055Z,53.70
2023-03-04T15:13:06.720Z,53.68
2023-03-04T15:15:40.294Z,53.60
2023-03-04T15:18:26.619Z,53.90
2023-03-04T15:20:59.171Z,54.09
2023-03-04T15:23:27.243Z,53.97
2023-03-04T15:25:56.602Z,54.74
2023-03-04T15:28:24.691Z,54.84
2023-03-04T15:30:51.818Z,54.20
2023-03-04T15:33:21.048Z,54.84
2023-03-04T15:35:57.193Z,54.49
2023-03-04T15:38:25.359Z,54.33
2023-03-04T15:40:54.473Z,54.10
2023-03-04T15:43:23.018Z,54.86
2023-03-04T15:45:51.151Z,54.76
2023-03-04T15:48:18.863Z,55.25
2023-03-04T15:50:56.085Z,55.22
2023-03-04T15:53:39.819Z,55.28
2023-03-04T15:56:12.163Z,54.88
2023-03-04T15:58:39.468Z,54.76
2023-03-04T16:01:06.356Z,54.57
2023-03-04T16:03:33.171Z,54.47
2023-03-04T16:06:00.079Z,54.54
2023-03-04T16:08:26.819Z,54.36
2023-03-04T16:10:54.236Z,54.42
2023-03-04T16:13:23.499Z,54.46
2023-03-04T16:15:50.240Z,54.12
2023-03-04T16:18:17.607Z,54.12
2023-03-04T16:20:49.657Z,54.76
2023-03-04T16:23:21.241Z,54.71
2023-03-04T16:25:49.550Z,54.87
2023-03-04T16:28:16.544Z,54.60
2023-03-04T16:30:43.602Z,54.59
2023-03-04T16:33:11.475Z,54.73
2023-03-04T16:35:39.639Z,54.66
2023-03-04T16:38:18.776Z,54.84
2023-03-04T16:40:45.321Z,55.43
2023-03-04T16:43:13.942Z,55.12
2023-03-04T16:45:41.375Z,55.38
2023-03-04T16:48:07.985Z,55.61
2023-03-04T16:50:36.844Z,56.09
2023-03-04T16:53:04.506Z,56.41
2023-03-04T16:55:31.854Z,56.45
2023-03-04T16:57:58.586Z,56.57
2023-03-04T17:00:28.026Z,56.77
2023-03-04T17:02:57.585Z,56.55
2023-03-04T17:05:26.676Z,56.93
2023-03-04T17:07:53.296Z,57.05
2023-03-04T17:10:20.998Z,56.57
2023-03-04T17:12:47.905Z,56.72
2023-03-04T17:15:15.405Z,56.99
2023-03-04T17:17:43.236Z,56.96
2023-03-04T17:20:13.642Z,57.23
2023-03-04T17:22:40.740Z,57.31
2023-03-04T17:25:08.027Z,56.99
2023-03-04T17:27:34.800Z,56.94
2023-03-04T17:30:01.488Z,57.25
2023-03-04T17:32:28.581Z,57.05
2023-03-04T17:34:55.849Z,57.56
2023-03-04T17:37:22.896Z,57.24
2023-03-04T17:39:49.494Z,57.38
2023-03-04T17:42:16.198Z,57.37
2023-03-04T17:44:42.937Z,57.20
2023-03-04T17:47:09.521Z,57.60
2023-03-04T17:49:36.160Z,57.56
2023-03-04T17:52:04.325Z,57.14
2023-03-04T17:54:32.056Z,57.31
2023-03-04T17:56:58.685Z,57.46
2023-03-04T17:59:25.208Z,57.45
2023-03-04T18:01:54.220Z,57.39
2023-03-04T18:04:21.278Z,57.53
2023-03-04T18:06:48.063Z,57.70
2023-03-04T18:09:14.866Z,57.85
2023-03-04T18:11:42.451Z,57.96
2023-03-04T18:14:09.170Z,57.35
2023-03-04T18:16:35.795Z,57.80
2023-03-04T18:19:02.970Z,57.59
2023-03-04T18:21:30.472Z,57.94
2023-03-04T18:23:57.908Z,57.90
2023-03-04T18:26:25.604Z,57.42
2023-03-04T18:28:53.264Z,57.56
2023-03-04T18:31:20.953Z,57.78
2023-03-04T18:33:47.692Z,57.40
2023-03-04T18:36:15.117Z,57.58
2023-03-04T18:38:42.129Z,58.08
2023-03-04T18:41:11.803Z,57.75
2023-03-04T18:43:39.022Z,57.61
2023-03-04T18:46:20.297Z,58.03
2023-03-04T18:48:50.359Z,57.61
2023-03-04T18:51:16.999Z,57.80
2023-03-04T18:53:43.609Z,58.17
2023-03-04T18:56:20.932Z,57.96
2023-03-04T18:58:50.412Z,58.55
2023-03-04T19:01:20.599Z,58.45
2023-03-04T19:03:48.108Z,58.06
2023-03-04T19:06:15.136Z,58.13
2023-03-04T19:08:41.671Z,58.70
2023-03-04T19:11:08.216Z,58.30
2023-03-04T19:13:34.856Z,58.42
2023-03-04T19:16:01.414Z,58.78
2023-03-04T19:18:29.207Z,58.20
2023-03-04T19:20:58.585Z,58.46
2023-03-04T19:23:25.089Z,58.33
2023-03-04T19:25:51.602Z,58.84
2023-03-04T19:28:18.907Z,58.44
2023-03-04T19:30:45.646Z,59.01
2023-03-04T19:33:12.261Z,58.37
2023-03-04T19:35:43.270Z,58.55
2023-03-04T19:38:09.831Z,58.85
2023-03-04T19:40:40.445Z,58.53
2023-03-04T19:43:08.062Z,58.53
2023-03-04T19:45:34.983Z,58.60
2023-03-04T19:48:03.091Z,59.04
2023-03-04T19:50:29.958Z,58.36
2023-03-04T19:52:56.684Z,58.48
2023-03-04T19:55:23.254Z,58.38
2023-03-04T19:57:49.867Z,58.79
2023-03-04T20:00:16.906Z,58.78
2023-03-04T20:02:45.563Z,58.96
2023-03-04T20:05:13.539Z,58.43
2023-03-04T20:07:40.517Z,58.37
2023-03-04T20:10:07.894Z,58.67
2023-03-04T20:12:36.274Z,58.55
2023-03-04T20:15:05.996Z,58.52
2023-03-04T20:17:32.527Z,58.55
2023-03-04T20:19:59.040Z,58.72
2023-03-04T20:22:25.707Z,58.17
2023-03-04T20:24:54.867Z,58.22
2023-03-04T20:27:21.496Z,58.19
2023-03-04T20:29:49.026Z,58.27
2023-03-04T20:32:15.738Z,58.26
2023-03-04T20:34:42.330Z,58.62
2023-03-04T20:37:08.954Z,58.47
2023-03-04T20:39:35.468Z,58.79
2023-03-04T20:42:01.991Z,58.35
2023-03-04T20:44:28.544Z,58.85
2023-03-04T20:46:55.682Z,58.34
2023-03-04T20:49:26.600Z,58.90
2023-03-04T20:52:00.693Z,58.84
2023-03-04T20:54:27.296Z,58.91
2023-03-04T20:56:53.859Z,59.03
2023-03-04T20:59:20.478Z,59.10
2023-03-04T21:01:50.022Z,58.62
2023-03-04T21:04:17.577Z,59.18
2023-03-04T21:06:45.245Z,59.36
2023-03-04T21:09:14.872Z,59.18
2023-03-04T21:11:42.455Z,58.97
2023-03-04T21:14:16.593Z,59.29
2023-03-04T21:16:43.474Z,59.79
2023-03-04T21:19:16.962Z,59.68
2023-03-04T21:21:44.311Z,59.24
2023-03-04T21:24:14.533Z,59.48
2023-03-04T21:26:45.144Z,59.75
2023-03-04T21:29:12.770Z,59.67
2023-03-04T21:31:43.297Z,59.76
2023-03-04T21:34:25.189Z,59.51
2023-03-04T21:36:51.804Z,59.78
2023-03-04T21:39:23.123Z,60.17
2023-03-04T21:41:50.365Z,60.20
2023-03-04T21:44:28.086Z,60.19
2023-03-04T21:46:56.546Z,59.93
2023-03-04T21:49:23.125Z,60.25
2023-03-04T21:51:49.666Z,59.68
2023-03-04T21:54:16.519Z,60.39
2023-03-04T21:56:43.272Z,60.30
2023-03-04T21:59:13.095Z,60.26
2023-03-04T22:01:39.812Z,60.46
2023-03-04T22:04:06.618Z,60.41
2023-03-04T22:06:33.817Z,60.81
2023-03-04T22:09:02.260Z,60.51
2023-03-04T22:11:30.132Z,60.58
2023-03-04T22:13:59.773Z,61.03
2023-03-04T22:16:27.117Z,60.89
2023-03-04T22:18:53.684Z,61.28
2023-03-04T22:21:21.911Z,61.34
2023-03-04T22:23:48.717Z,61.01
2023-03-04T22:26:21.181Z,61.68
2023-03-04T22:28:47.976Z,61.29
2023-03-04T22:31:29.783Z,61.67
2023-03-04T22:34:16.723Z,61.74
2023-03-04T22:36:46.155Z,61.79
2023-03-04T22:39:16.144Z,62.23
2023-03-04T22:41:42.722Z,61.96
2023-03-04T22:44:09.275Z,61.85
2023-03-04T22:46:38.282Z,62.01
2023-03-04T22:49:09.665Z,61.78
2023-03-04T22:51:37.383Z,61.97
2023-03-04T22:54:04.241Z,62.19
2023-03-04T22:56:30.831Z,62.05
2023-03-04T22:58:57.354Z,61.94
2023-03-04T23:01:24.525Z,62.00
2023-03-04T23:03:51.105Z,61.75
2023-03-04T23:06:25.161Z,62.14
2023-03-04T23:08:52.810Z,62.44
2023-03-04T23:11:26.347Z,62.41
2023-03-04T23:13:54.535Z,63.09
2023-03-04T23:16:22.433Z,62.98
2023-03-04T23:18:49.671Z,63.11
2023-03-04T23:21:20.195Z,63.34
2023-03-04T23:23:47.715Z,63.28
2023-03-04T23:26:18.465Z,63.58
2023-03-04T23:28:45.358Z,63.72
2023-03-04T23:31:14.754Z,63.33
2023-03-04T23:33:46.175Z,63.91
2023-03-04T23:36:15.576Z,63.41
2023-03-04T23:38:47.083Z,64.01
2023-03-04T23:41:15.962Z,64.10
2023-03-04T23:43:42.555Z,64.01
2023-03-04T23:46:11.590Z,64.50
2023-03-04T23:48:38.976Z,64.52
2023-03-04T23:51:05.693Z,64.45
2023-03-04T23:53:34.435Z,64.62
2023-03-04T23:56:01.347Z,64.42
2023-03-04T23:58:28.010Z,64.69
